Time;durP1;ratioP1;P1;durP2;ratioP2;P2;SDS_P1;SDS_P2;PMS_P1;PMS_P2;Temp;Humidity;BMP_temperature;BMP_pressure;BME280_temperature;BME280_humidity;BME280_pressure;Samples;Min_cycle;Max_cycle;Signal;HPM_P1;HPM_P2
2021/06/20 00:01:41;;;;;;;;;5.50;5.50;;;;;20.40;82.89;100650.22;4968437;28;45572;-79
2021/06/20 00:04:07;;;;;;;;;7.75;6.25;;;;;20.39;83.31;100648.56;4965303;28;48209;-79
2021/06/20 00:06:38;;;;;;;;;7.50;6.00;;;;;20.38;83.60;100647.75;4969520;28;45471;-78
2021/06/20 00:09:07;;;;;;;;;7.00;7.00;;;;;20.38;83.17;100642.38;4969810;28;45539;-78
2021/06/20 00:11:35;;;;;;;;;5.25;5.25;;;;;20.34;83.69;100630.44;4966750;28;45586;-78
2021/06/20 00:14:00;;;;;;;;;7.50;5.75;;;;;20.36;83.20;100632.91;4967910;28;46234;-78
2021/06/20 00:16:26;;;;;;;;;6.00;5.75;;;;;20.34;83.57;100630.44;4968834;28;45511;-78
2021/06/20 00:18:52;;;;;;;;;6.50;6.00;;;;;20.35;83.60;100632.09;4968887;28;45470;-78
2021/06/20 00:21:18;;;;;;;;;7.00;5.00;;;;;20.33;83.45;100633.34;4971282;28;45575;-78
2021/06/20 00:23:44;;;;;;;;;5.25;4.75;;;;;20.31;83.03;100630.88;4965916;28;46285;-79
2021/06/20 00:26:10;;;;;;;;;6.25;6.25;;;;;20.31;83.37;100630.88;4965597;28;45788;-78
2021/06/20 00:28:35;;;;;;;;;6.00;5.00;;;;;20.29;83.04;100624.06;4968859;28;45515;-78
2021/06/20 00:31:01;;;;;;;;;7.00;6.00;;;;;20.28;82.79;100623.25;4971296;28;46521;-79
2021/06/20 00:33:26;;;;;;;;;5.25;5.25;;;;;20.25;82.96;100618.31;4971695;28;45532;-78
2021/06/20 00:35:51;;;;;;;;;7.25;6.00;;;;;20.23;83.37;100620.41;4966820;28;45799;-78
2021/06/20 00:38:17;;;;;;;;;8.25;5.75;;;;;20.21;83.65;100613.59;4967095;28;45385;-78
2021/06/20 00:40:42;;;;;;;;;5.50;5.50;;;;;20.22;83.50;100605.31;4966324;28;45567;-78
2021/06/20 00:43:08;;;;;;;;;7.00;5.25;;;;;20.26;83.44;100611.09;4966241;28;48277;-79
2021/06/20 00:45:34;;;;;;;;;5.75;5.25;;;;;20.24;83.49;100613.16;4969682;28;45499;-79
2021/06/20 00:47:59;;;;;;;;;8.00;5.75;;;;;20.22;82.88;100610.69;4970199;28;45433;-79
2021/06/20 00:50:26;;;;;;;;;7.25;6.25;;;;;20.20;83.11;100615.44;4965077;28;45445;-79
2021/06/20 00:52:56;;;;;;;;;7.00;6.00;;;;;20.16;83.56;100611.56;4966447;28;45587;-78
2021/06/20 00:55:22;;;;;;;;;7.00;6.25;;;;;20.15;83.26;100615.25;4964425;28;45447;-78
2021/06/20 00:57:47;;;;;;;;;7.00;7.00;;;;;20.12;82.46;100613.03;4967072;28;45495;-79
2021/06/20 01:00:13;;;;;;;;;5.75;5.75;;;;;20.06;83.00;100613.88;4971896;28;46027;-78
2021/06/20 01:02:39;;;;;;;;;7.00;6.75;;;;;20.03;82.59;100606.25;4966500;28;45585;-78
2021/06/20 01:05:09;;;;;;;;;5.50;4.00;;;;;19.96;82.67;100612.50;4965452;28;45313;-76
2021/06/20 01:07:35;;;;;;;;;9.75;6.75;;;;;19.96;82.69;100623.22;4965059;28;45808;-78
2021/06/20 01:10:03;;;;;;;;;9.00;7.00;;;;;19.93;83.34;100622.81;4962545;28;45473;-79
2021/06/20 01:12:28;;;;;;;;;6.75;6.75;;;;;19.92;83.32;100623.84;4968411;28;45477;-78
2021/06/20 01:14:54;;;;;;;;;6.75;6.75;;;;;19.87;83.70;100624.47;4967247;28;47948;-79
2021/06/20 01:17:20;;;;;;;;;8.25;4.75;;;;;19.85;83.36;100626.56;4963623;28;46018;-78
2021/06/20 01:19:46;;;;;;;;;6.00;6.00;;;;;19.83;82.52;100633.16;4966163;28;45328;-79
2021/06/20 01:22:19;;;;;;;;;6.75;5.50;;;;;19.83;83.25;100627.81;4966135;28;45938;-79
2021/06/20 01:24:50;;;;;;;;;5.25;5.00;;;;;19.78;83.34;100636.47;4965636;28;45514;-78
2021/06/20 01:27:15;;;;;;;;;6.50;5.00;;;;;19.77;82.47;100630.31;4974048;28;45743;-78
2021/06/20 01:29:46;;;;;;;;;8.75;5.50;;;;;19.73;83.37;100631.78;4964379;28;45640;-79
2021/06/20 01:32:13;;;;;;;;;6.25;5.75;;;;;19.75;82.89;100636.91;4966507;28;45591;-78
2021/06/20 01:34:38;;;;;;;;;6.00;6.00;;;;;19.70;83.46;100642.09;4963850;28;45466;-78
2021/06/20 01:37:08;;;;;;;;;7.50;5.75;;;;;19.69;83.52;100629.72;4965508;28;45891;-78
2021/06/20 01:39:35;;;;;;;;;6.50;6.50;;;;;19.67;83.15;100635.28;4968958;28;45550;-78
2021/06/20 01:42:01;;;;;;;;;7.00;7.00;;;;;19.64;83.14;100633.00;4964361;28;46416;-78
2021/06/20 01:44:26;;;;;;;;;6.00;6.00;;;;;19.59;83.14;100619.41;4966499;28;45527;-78
2021/06/20 01:46:52;;;;;;;;;7.75;6.00;;;;;19.58;83.66;100616.94;4963837;28;45689;-78
2021/06/20 01:49:18;;;;;;;;;6.00;5.75;;;;;19.55;83.45;100618.19;4966018;28;46872;-79
2021/06/20 01:51:43;;;;;;;;;9.75;7.25;;;;;19.53;83.25;100602.34;4964350;28;46224;-79
2021/06/20 01:54:09;;;;;;;;;9.00;6.25;;;;;19.51;83.87;100603.56;4981681;28;45504;-78
2021/06/20 01:56:34;;;;;;;;;6.00;6.00;;;;;19.46;83.39;100598.84;4965078;28;45448;-77
2021/06/20 01:59:00;;;;;;;;;11.75;8.00;;;;;19.45;83.91;100599.03;4964847;28;45501;-78
2021/06/20 02:01:25;;;;;;;;;3.25;3.25;;;;;19.46;83.19;100604.22;4964022;28;46102;-79
2021/06/20 02:03:51;;;;;;;;;8.00;7.25;;;;;19.41;83.94;100598.66;4964178;28;45978;-78
2021/06/20 02:06:17;;;;;;;;;7.50;6.00;;;;;19.38;83.95;100601.72;4970116;28;45488;-79
2021/06/20 02:08:42;;;;;;;;;5.75;5.75;;;;;19.33;83.37;100599.69;4962946;28;45584;-78
2021/06/20 02:11:10;;;;;;;;;7.00;6.75;;;;;19.34;83.82;100606.72;4965196;28;56507;-79
2021/06/20 02:13:36;;;;;;;;;7.00;7.00;;;;;19.34;83.76;100609.38;4966478;28;45555;-78
2021/06/20 02:16:02;;;;;;;;;7.75;6.25;;;;;19.34;84.19;100608.56;4964873;28;45576;-78
2021/06/20 02:18:27;;;;;;;;;7.00;6.00;;;;;19.31;83.43;100614.31;4970466;28;45491;-79
2021/06/20 02:20:55;;;;;;;;;7.00;6.50;;;;;19.28;83.30;100618.25;4965219;28;46035;-74
2021/06/20 02:23:20;;;;;;;;;6.00;5.50;;;;;19.27;84.27;100621.97;4964743;28;45682;-74
2021/06/20 02:25:47;;;;;;;;;8.00;6.75;;;;;19.26;83.21;100616.81;4962411;28;45812;-74
2021/06/20 02:28:12;;;;;;;;;9.25;6.75;;;;;19.25;84.06;100621.34;4967623;28;45696;-74
2021/06/20 02:30:38;;;;;;;;;7.25;6.75;;;;;19.21;84.61;100628.16;4965899;28;46298;-75
2021/06/20 02:33:04;;;;;;;;;9.25;6.75;;;;;19.26;83.56;100630.22;4967009;28;45525;-75
2021/06/20 02:35:29;;;;;;;;;7.50;7.00;;;;;19.27;84.17;100615.78;4964814;28;45499;-79
2021/06/20 02:37:55;;;;;;;;;7.75;6.75;;;;;19.26;84.42;100616.81;4964917;28;45480;-77
2021/06/20 02:40:21;;;;;;;;;7.25;6.25;;;;;19.28;83.65;100620.09;4965131;28;46295;-74
2021/06/20 02:42:48;;;;;;;;;6.75;6.50;;;;;19.26;84.21;100627.53;4963679;28;45444;-75
2021/06/20 02:45:16;;;;;;;;;7.25;7.25;;;;;19.25;84.49;100633.94;4968523;28;45536;-73
2021/06/20 02:47:42;;;;;;;;;9.50;8.25;;;;;19.23;83.84;100631.44;4966059;28;45389;-74
2021/06/20 02:50:09;;;;;;;;;7.75;6.75;;;;;19.21;83.71;100630.00;4964780;28;45546;-74
2021/06/20 02:52:34;;;;;;;;;7.00;5.25;;;;;19.20;83.67;100631.88;4962702;28;45618;-74
2021/06/20 02:55:01;;;;;;;;;10.25;6.25;;;;;19.22;83.43;100629.81;4965760;28;45482;-75
2021/06/20 02:57:29;;;;;;;;;9.75;9.75;;;;;19.26;83.89;100628.38;4970092;28;45488;-73
2021/06/20 02:59:57;;;;;;;;;10.25;7.25;;;;;19.27;83.82;100623.84;4970281;28;45500;-74
2021/06/20 03:02:24;;;;;;;;;8.25;7.75;;;;;19.22;84.08;100624.47;4977798;28;45551;-73
2021/06/20 03:04:53;;;;;;;;;4.25;3.50;;;;;19.21;82.86;100630.00;4964786;28;45392;-74
2021/06/20 03:07:19;;;;;;;;;8.75;7.75;;;;;19.21;83.43;100624.66;4966593;28;45799;-73
2021/06/20 03:09:45;;;;;;;;;7.50;7.50;;;;;19.15;83.25;100622.81;4966068;28;45621;-74
2021/06/20 03:12:12;;;;;;;;;9.25;6.25;;;;;19.06;83.66;100623.03;4967669;28;45509;-73
2021/06/20 03:14:39;;;;;;;;;7.50;7.00;;;;;19.03;84.09;100618.09;4962902;28;45440;-74
2021/06/20 03:17:07;;;;;;;;;7.50;7.25;;;;;19.04;84.49;100611.72;4964502;28;45529;-74
2021/06/20 03:19:34;;;;;;;;;7.25;5.50;;;;;19.10;83.98;100628.81;4977612;28;48307;-73
2021/06/20 03:22:00;;;;;;;;;6.50;6.00;;;;;19.07;nan;100630.03;4963677;28;46549;-74
2021/06/20 03:24:34;;;;;;;;;8.00;7.50;;;;;19.04;83.76;100619.75;4965678;28;45455;-74
2021/06/20 03:27:00;;;;;;;;;7.50;5.75;;;;;19.04;83.63;100625.09;4965437;28;45637;-75
2021/06/20 03:29:26;;;;;;;;;5.75;5.75;;;;;18.98;83.56;100612.53;4962449;28;45495;-74
2021/06/20 03:31:53;;;;;;;;;5.25;5.25;;;;;19.00;83.61;100623.03;4966418;28;50288;-74
2021/06/20 03:34:19;;;;;;;;;7.50;5.75;;;;;18.94;82.97;100618.50;4966963;28;45582;-74
2021/06/20 03:36:45;;;;;;;;;5.50;5.00;;;;;18.90;83.29;100623.47;4970108;28;45513;-74
2021/06/20 03:39:11;;;;;;;;;4.75;4.00;;;;;18.96;82.65;100641.38;4972184;28;46343;-74
2021/06/20 03:41:38;;;;;;;;;8.25;5.75;;;;;18.92;83.01;100632.13;4964736;28;45671;-74
2021/06/20 03:44:06;;;;;;;;;5.75;4.50;;;;;18.89;82.60;100621.78;4966986;28;45593;-75
2021/06/20 03:46:31;;;;;;;;;3.50;1.50;;;;;18.81;82.56;100614.78;4965637;28;45621;-75
2021/06/20 03:48:57;;;;;;;;;3.25;3.25;;;;;18.75;81.04;100617.47;4966727;28;57383;-74
2021/06/20 03:51:22;;;;;;;;;3.00;3.00;;;;;18.74;81.76;100621.16;4969939;28;45608;-74
2021/06/20 03:53:47;;;;;;;;;4.25;3.75;;;;;18.66;82.59;100623.00;4968460;28;45686;-75
2021/06/20 03:56:13;;;;;;;;;4.00;4.00;;;;;18.62;82.59;100627.13;4965783;28;45521;-74
2021/06/20 03:58:38;;;;;;;;;4.00;4.00;;;;;18.60;82.59;100623.03;4966432;28;47071;-74
2021/06/20 04:01:04;;;;;;;;;5.25;4.00;;;;;18.55;81.76;100625.47;4965725;28;45623;-75
2021/06/20 04:03:31;;;;;;;;;3.00;3.00;;;;;18.52;81.75;100640.09;4971417;28;45459;-74
2021/06/20 04:05:56;;;;;;;;;3.25;3.00;;;;;18.51;82.00;100642.97;4971249;28;45431;-74
2021/06/20 04:08:22;;;;;;;;;2.75;2.75;;;;;18.45;81.17;100631.22;4965687;28;45559;-75
2021/06/20 04:10:47;;;;;;;;;3.25;3.25;;;;;18.41;81.32;100632.66;4966109;28;45458;-74
2021/06/20 04:13:13;;;;;;;;;2.50;2.50;;;;;18.42;81.20;100643.16;4968339;28;46286;-75
2021/06/20 04:15:39;;;;;;;;;3.00;3.00;;;;;18.40;81.49;100641.72;4969357;28;45682;-73
2021/06/20 04:18:05;;;;;;;;;5.00;3.00;;;;;18.36;81.39;100646.63;4969382;28;45488;-75
2021/06/20 04:20:31;;;;;;;;;4.00;4.00;;;;;18.40;82.08;100657.78;4967350;28;45543;-74
2021/06/20 04:22:56;;;;;;;;;3.00;3.00;;;;;18.38;81.42;100657.16;4966713;28;45641;-74
2021/06/20 04:25:22;;;;;;;;;4.25;4.00;;;;;18.40;81.50;100655.91;4966059;28;45579;-74
2021/06/20 04:27:48;;;;;;;;;4.00;4.00;;;;;18.44;81.67;100662.50;4973474;28;46037;-74
2021/06/20 04:30:18;;;;;;;;;4.75;4.00;;;;;18.45;81.80;100658.81;4970234;28;45400;-75
2021/06/20 04:32:44;;;;;;;;;3.25;3.00;;;;;18.49;81.41;100656.53;4966283;28;45531;-74
2021/06/20 04:35:11;;;;;;;;;3.75;3.75;;;;;18.51;81.82;100656.34;4968613;28;45653;-75
2021/06/20 04:37:38;;;;;;;;;4.00;4.00;;;;;18.53;80.01;100648.94;4966691;28;46412;-75
2021/06/20 04:40:05;;;;;;;;;4.00;3.25;;;;;18.55;80.65;100655.75;4967685;28;45645;-74
2021/06/20 04:42:37;;;;;;;;;4.00;4.00;;;;;18.56;80.70;100654.69;4967804;28;45481;-75
2021/06/20 04:45:03;;;;;;;;;3.25;2.75;;;;;18.59;80.40;100651.59;4969570;28;45537;-74
2021/06/20 04:47:29;;;;;;;;;4.25;3.00;;;;;18.65;79.24;100658.03;4962784;28;45463;-75
2021/06/20 04:49:55;;;;;;;;;3.75;2.25;;;;;18.66;79.87;100659.66;4964480;28;45527;-75
2021/06/20 04:52:21;;;;;;;;;3.00;3.00;;;;;18.64;78.73;100643.81;4963432;28;45495;-74
2021/06/20 04:54:49;;;;;;;;;1.00;1.00;;;;;18.67;78.33;100664.81;4965740;28;45464;-74
2021/06/20 04:57:20;;;;;;;;;3.25;2.75;;;;;18.69;78.10;100670.78;4991103;28;48221;-74
2021/06/20 04:59:51;;;;;;;;;3.00;3.00;;;;;18.69;77.24;100672.63;4964653;28;45532;-75
2021/06/20 05:02:17;;;;;;;;;4.00;2.00;;;;;18.63;78.02;100663.56;4964214;28;45603;-75
2021/06/20 05:04:45;;;;;;;;;4.50;3.00;;;;;18.68;78.64;100663.78;4964212;28;45541;-76
2021/06/20 05:07:11;;;;;;;;;4.25;3.50;;;;;18.73;79.39;100668.53;4965189;28;45702;-77
2021/06/20 05:09:37;;;;;;;;;4.75;2.00;;;;;18.76;78.32;100659.28;4967023;28;45557;-77
2021/06/20 05:12:04;;;;;;;;;3.00;3.00;;;;;18.82;77.18;100645.09;4967004;28;45793;-77
2021/06/20 05:14:30;;;;;;;;;3.00;3.00;;;;;18.80;77.33;100645.28;4967549;28;45715;-80
2021/06/20 05:16:57;;;;;;;;;3.00;3.00;;;;;18.79;77.29;100645.47;4964473;28;58124;-78
2021/06/20 05:19:22;;;;;;;;;3.00;3.00;;;;;18.82;76.51;100656.63;4969079;28;45564;-76
2021/06/20 05:21:48;;;;;;;;;3.50;2.50;;;;;18.82;77.78;100661.16;4964151;28;45590;-76
2021/06/20 05:24:13;;;;;;;;;3.75;3.00;;;;;18.89;78.08;100661.97;4973056;28;45565;-76
2021/06/20 05:26:39;;;;;;;;;2.50;2.50;;;;;18.96;77.67;100652.06;4961750;28;46235;-76
2021/06/20 05:29:04;;;;;;;;;2.00;2.00;;;;;19.01;76.88;100646.09;4964137;28;45591;-76
2021/06/20 05:31:30;;;;;;;;;3.00;3.00;;;;;19.06;77.05;100647.13;4960388;28;56569;-75
2021/06/20 05:33:56;;;;;;;;;2.75;2.50;;;;;19.12;76.79;100638.28;4963260;28;46573;-76
2021/06/20 05:36:21;;;;;;;;;2.75;2.50;;;;;19.22;75.81;100645.88;4967053;28;46488;-74
2021/06/20 05:38:47;;;;;;;;;3.00;3.00;;;;;19.26;75.29;100646.28;4964504;28;45541;-75
2021/06/20 05:41:12;;;;;;;;;4.00;3.50;;;;;19.32;74.66;100648.13;4963106;28;45557;-76
2021/06/20 05:43:38;;;;;;;;;3.00;2.50;;;;;19.42;75.96;100653.06;4978927;28;45622;-75
2021/06/20 05:46:04;;;;;;;;;3.50;3.50;;;;;19.60;76.31;100642.50;4965820;28;46043;-76
2021/06/20 05:48:30;;;;;;;;;4.00;3.00;;;;;19.78;74.64;100657.94;4970977;28;45443;-76
2021/06/20 05:50:58;;;;;;;;;3.00;3.00;;;;;19.88;74.57;100652.97;4965924;28;45566;-76
2021/06/20 05:53:23;;;;;;;;;3.75;3.50;;;;;19.97;71.75;100651.66;4964865;28;45818;-76
2021/06/20 05:55:49;;;;;;;;;4.00;2.75;;;;;20.00;71.84;100652.28;4964475;28;46198;-76
2021/06/20 05:58:15;;;;;;;;;2.50;2.00;;;;;20.03;72.96;100662.56;4963726;28;45507;-76
2021/06/20 06:00:41;;;;;;;;;3.25;3.25;;;;;20.14;71.76;100667.28;4982578;28;45722;-76
2021/06/20 06:03:07;;;;;;;;;5.00;4.00;;;;;20.18;72.56;100669.34;4967909;28;45585;-75
2021/06/20 06:05:32;;;;;;;;;5.75;4.00;;;;;20.29;72.46;100654.41;4964211;28;45578;-76
2021/06/20 06:08:01;;;;;;;;;3.25;3.00;;;;;20.35;72.39;100653.56;4964832;28;45697;-75
2021/06/20 06:10:28;;;;;;;;;5.00;3.75;;;;;20.40;73.13;100667.16;4966108;28;45397;-76
2021/06/20 06:12:55;;;;;;;;;5.25;2.75;;;;;20.49;71.86;100666.88;4964173;28;45507;-76
2021/06/20 06:15:21;;;;;;;;;3.75;3.75;;;;;20.48;71.37;100667.94;4969801;28;46283;-76
2021/06/20 06:17:46;;;;;;;;;4.25;3.75;;;;;20.53;72.74;100665.44;4965545;28;45611;-76
2021/06/20 06:20:13;;;;;;;;;4.00;3.25;;;;;20.57;72.40;100667.50;4963431;28;45445;-76
2021/06/20 06:22:38;;;;;;;;;4.25;3.00;;;;;20.74;71.84;100659.72;4964782;28;45867;-76
2021/06/20 06:25:04;;;;;;;;;3.00;3.00;;;;;20.97;71.57;100661.00;4965114;28;45524;-76
2021/06/20 06:27:30;;;;;;;;;4.50;3.00;;;;;21.26;71.38;100664.84;4971580;28;45782;-75
2021/06/20 06:29:55;;;;;;;;;2.00;2.00;;;;;21.51;69.66;100666.72;4962968;28;45917;-75
2021/06/20 06:32:21;;;;;;;;;2.50;2.25;;;;;21.74;69.57;100668.75;4963689;28;45992;-76
2021/06/20 06:34:47;;;;;;;;;2.50;2.50;;;;;21.84;68.68;100655.59;4978884;28;47112;-75
2021/06/20 06:37:13;;;;;;;;;4.00;2.75;;;;;21.85;67.67;100657.22;4969663;28;45463;-76
2021/06/20 06:39:41;;;;;;;;;4.50;3.00;;;;;21.80;66.83;100646.31;4965748;28;50443;-76
2021/06/20 06:42:06;;;;;;;;;4.00;2.50;;;;;21.79;67.49;100647.38;4966972;28;45625;-75
2021/06/20 06:44:32;;;;;;;;;5.00;4.25;;;;;21.80;67.80;100649.00;4962758;28;47021;-76
2021/06/20 06:46:57;;;;;;;;;9.75;3.75;;;;;21.77;67.86;100644.91;4962743;28;45504;-75
2021/06/20 06:49:23;;;;;;;;;5.00;3.75;;;;;21.79;67.08;100658.97;4963584;28;45448;-75
2021/06/20 06:51:49;;;;;;;;;5.25;2.75;;;;;21.83;67.15;100653.94;4964114;28;45462;-75
2021/06/20 06:54:17;;;;;;;;;4.00;4.00;;;;;21.85;66.11;100651.84;4967295;28;45584;-75
2021/06/20 06:56:47;;;;;;;;;3.25;3.25;;;;;21.89;66.94;100664.63;4967380;28;45587;-75
2021/06/20 06:59:12;;;;;;;;;3.00;3.00;;;;;21.95;64.72;100668.28;4962573;28;45538;-74
2021/06/20 07:01:38;;;;;;;;;3.75;3.75;;;;;22.09;63.59;100663.56;4965053;28;46024;-75
2021/06/20 07:04:04;;;;;;;;;4.00;4.00;;;;;22.26;65.15;100659.22;4962730;28;46089;-74
2021/06/20 07:06:29;;;;;;;;;3.75;2.00;;;;;22.42;65.78;100663.13;4969168;28;45768;-75
2021/06/20 07:08:55;;;;;;;;;5.75;3.00;;;;;22.58;65.39;100668.91;4962440;28;45618;-74
2021/06/20 07:11:21;;;;;;;;;3.75;3.00;;;;;22.66;64.47;100673.97;4962567;28;45602;-74
2021/06/20 07:13:47;;;;;;;;;3.00;3.00;;;;;22.83;64.40;100666.84;4962832;28;45555;-74
2021/06/20 07:16:13;;;;;;;;;3.75;3.75;;;;;22.96;61.87;100673.91;4961941;28;45527;-74
2021/06/20 07:18:38;;;;;;;;;3.00;3.00;;;;;22.93;62.05;100664.41;4965069;28;45861;-75
2021/06/20 07:21:04;;;;;;;;;4.00;3.00;;;;;23.18;64.51;100680.38;4966413;28;45730;-73
2021/06/20 07:23:29;;;;;;;;;3.00;3.00;;;;;23.34;63.78;100670.78;4962807;28;46420;-75
2021/06/20 07:25:55;;;;;;;;;4.00;3.00;;;;;23.59;62.61;100673.22;4963948;28;45538;-77
2021/06/20 07:28:20;;;;;;;;;5.25;5.00;;;;;23.73;62.96;100665.69;4978722;28;45499;-75
2021/06/20 07:30:49;;;;;;;;;5.50;3.75;;;;;23.79;62.53;100666.66;4963511;28;45532;-78
2021/06/20 07:33:15;;;;;;;;;4.00;3.00;;;;;23.87;60.34;100668.16;4964043;28;45916;-75
2021/06/20 07:35:41;;;;;;;;;6.50;3.75;;;;;23.89;60.84;100660.66;4959935;28;59248;-75
2021/06/20 07:38:06;;;;;;;;;3.50;3.00;;;;;24.05;61.22;100670.66;4962139;28;45805;-75
2021/06/20 07:40:32;;;;;;;;;5.00;3.25;;;;;24.23;57.32;100672.34;4961880;28;45471;-75
2021/06/20 07:42:58;;;;;;;;;4.00;4.00;;;;;24.21;60.99;100669.91;4958587;28;45468;-74
2021/06/20 07:45:23;;;;;;;;;6.00;5.25;;;;;24.43;60.06;100678.16;4966910;28;45966;-74
2021/06/20 07:47:48;;;;;;;;;3.00;3.00;;;;;24.56;61.03;100666.25;4954480;28;45673;-75
2021/06/20 07:50:14;;;;;;;;;3.00;3.00;;;;;24.81;59.73;100652.34;4958813;28;45768;-74
2021/06/20 07:52:40;;;;;;;;;3.75;3.50;;;;;25.14;59.47;100661.47;4960426;28;45631;-75
2021/06/20 07:55:08;;;;;;;;;3.50;2.25;;;;;25.39;58.96;100655.66;4957716;28;45954;-75
2021/06/20 07:57:34;;;;;;;;;4.00;4.00;;;;;25.67;59.04;100648.47;4962246;28;46605;-74
2021/06/20 07:59:59;;;;;;;;;5.00;3.50;;;;;26.53;58.52;100656.75;4961504;28;45494;-74
2021/06/20 08:02:25;;;;;;;;;3.00;3.00;;;;;29.21;51.37;100643.91;4960801;28;46404;-75
2021/06/20 08:04:50;;;;;;;;;4.00;2.75;;;;;32.52;47.66;100634.97;4959070;28;45529;-75
2021/06/20 08:07:16;;;;;;;;;3.25;3.25;;;;;35.53;43.10;100643.84;4959623;28;45531;-74
2021/06/20 08:09:42;;;;;;;;;5.00;2.00;;;;;37.71;38.27;100659.22;4963268;28;45587;-75
2021/06/20 08:12:09;;;;;;;;;5.00;3.25;;;;;38.58;37.13;100662.13;4962938;28;46096;-76
2021/06/20 08:14:34;;;;;;;;;3.50;3.50;;;;;38.48;34.89;100668.06;4959246;28;45481;-76
2021/06/20 08:17:01;;;;;;;;;1.50;1.50;;;;;37.91;34.51;100655.69;4951871;28;46613;-76
2021/06/20 08:19:27;;;;;;;;;5.00;3.75;;;;;38.96;35.24;100655.53;4960397;28;45610;-75
2021/06/20 08:21:55;;;;;;;;;4.00;3.00;;;;;40.58;32.73;100662.06;4967571;28;54699;-75
2021/06/20 08:24:21;;;;;;;;;2.00;2.00;;;;;41.84;31.01;100657.63;4969791;28;45476;-76
2021/06/20 08:26:46;;;;;;;;;3.25;3.00;;;;;42.57;29.22;100660.69;4962812;28;45725;-75
2021/06/20 08:29:13;;;;;;;;;3.00;3.00;;;;;42.88;26.72;100664.41;4965078;28;45516;-74
2021/06/20 08:31:39;;;;;;;;;3.00;1.00;;;;;43.02;26.62;100664.66;4962941;28;46283;-74
2021/06/20 08:34:08;;;;;;;;;4.50;2.75;;;;;43.34;26.40;100664.41;4965607;28;45434;-74
2021/06/20 08:36:37;;;;;;;;;2.25;2.00;;;;;44.18;26.42;100668.75;4967088;28;45870;-75
2021/06/20 08:39:04;;;;;;;;;1.00;1.00;;;;;44.95;22.69;100666.34;4967836;28;45604;-74
2021/06/20 08:41:33;;;;;;;;;1.00;1.00;;;;;44.31;21.05;100660.13;4966339;28;45444;-74
2021/06/20 08:43:59;;;;;;;;;3.25;2.00;;;;;43.31;25.41;100654.84;4964234;28;45541;-74
2021/06/20 08:46:24;;;;;;;;;1.50;1.50;;;;;43.01;26.12;100665.06;4967907;28;45566;-75
2021/06/20 08:48:51;;;;;;;;;1.50;1.50;;;;;43.31;25.70;100662.38;4966517;28;45426;-75
2021/06/20 08:51:17;;;;;;;;;3.00;2.50;;;;;43.37;20.82;100663.66;4957296;28;46964;-75
2021/06/20 08:53:42;;;;;;;;;2.00;2.00;;;;;43.01;24.73;100662.28;4968753;28;51923;-74
2021/06/20 08:56:08;;;;;;;;;2.00;2.00;;;;;43.43;25.44;100655.81;4963575;28;45494;-75
2021/06/20 08:58:34;;;;;;;;;1.25;1.25;;;;;44.32;24.94;100643.06;4961861;28;45673;-75
2021/06/20 09:01:03;;;;;;;;;1.50;1.50;;;;;44.67;20.94;100644.59;4964399;28;45496;-75
2021/06/20 09:03:45;;;;;;;;;2.00;2.00;;;;;44.21;22.62;100639.34;4968602;28;45551;-75
2021/06/20 09:06:18;;;;;;;;;1.00;1.00;;;;;44.09;23.63;100645.97;4969775;28;48757;-76
2021/06/20 09:08:58;;;;;;;;;2.50;1.00;;;;;43.92;22.40;100619.53;4962869;28;45901;-75
2021/06/20 09:11:33;;;;;;;;;1.75;1.75;;;;;43.94;21.95;100616.34;4964352;28;45531;-76
2021/06/20 09:14:07;;;;;;;;;1.00;1.00;;;;;44.30;23.60;100600.06;4967570;28;45598;-75
2021/06/20 09:16:35;;;;;;;;;3.00;1.00;;;;;44.11;22.85;100607.41;4957232;28;45416;-76
2021/06/20 09:19:01;;;;;;;;;2.00;2.00;;;;;44.18;23.18;100598.34;4965942;28;45694;-76
2021/06/20 09:21:26;;;;;;;;;1.75;1.75;;;;;44.22;23.29;100597.22;4985782;28;47590;-75
2021/06/20 09:23:59;;;;;;;;;3.00;2.00;;;;;44.22;22.30;100594.44;4965059;28;45493;-75
2021/06/20 09:26:37;;;;;;;;;2.00;2.00;;;;;43.49;24.13;100588.34;4962874;28;45556;-76
2021/06/20 09:29:04;;;;;;;;;2.50;1.75;;;;;42.89;25.15;100571.59;4965192;28;45483;-75
2021/06/20 09:32:05;;;;;;;;;1.25;1.25;;;;;42.11;24.68;100569.00;4967267;28;46400;-75
2021/06/20 09:34:48;;;;;;;;;1.00;1.00;;;;;40.89;24.00;100568.31;4956829;28;45652;-75
2021/06/20 09:37:15;;;;;;;;;1.25;1.00;;;;;39.77;27.05;100558.97;4957806;28;45576;-75
2021/06/20 09:39:41;;;;;;;;;2.00;2.00;;;;;39.57;27.78;100560.78;4961291;28;45706;-76
2021/06/20 09:42:09;;;;;;;;;2.25;2.25;;;;;39.44;26.24;100556.41;4960572;28;46337;-75
2021/06/20 09:44:44;;;;;;;;;3.00;2.00;;;;;39.06;26.94;100574.19;4960119;28;51670;-75
2021/06/20 09:47:12;;;;;;;;;1.00;1.00;;;;;38.17;26.54;100569.16;4961864;28;45570;-75
2021/06/20 09:49:39;;;;;;;;;1.25;1.25;;;;;37.58;28.33;100572.88;4956358;28;45669;-76
2021/06/20 09:52:05;;;;;;;;;1.00;1.00;;;;;37.71;29.35;100576.50;4965062;28;45581;-75
2021/06/20 09:54:33;;;;;;;;;1.75;1.75;;;;;37.70;27.43;100575.72;4965561;28;45678;-75
2021/06/20 09:56:59;;;;;;;;;2.25;1.00;;;;;37.75;29.11;100578.25;4959644;28;45528;-75
2021/06/20 09:59:28;;;;;;;;;3.75;1.75;;;;;38.06;28.43;100563.28;4965900;28;45669;-74
2021/06/20 10:01:53;;;;;;;;;0.50;0.50;;;;;38.37;27.60;100559.22;4959323;28;45668;-76
2021/06/20 10:04:19;;;;;;;;;1.75;1.75;;;;;38.50;24.84;100569.97;4964907;28;45600;-74
2021/06/20 10:06:45;;;;;;;;;3.50;3.25;;;;;38.29;25.02;100563.69;4959914;28;45653;-75
2021/06/20 10:09:10;;;;;;;;;2.75;1.75;;;;;38.07;25.60;100575.91;4966706;28;45885;-74
2021/06/20 10:11:36;;;;;;;;;3.50;3.50;;;;;37.75;26.38;100571.94;4966582;28;47913;-74
2021/06/20 10:14:01;;;;;;;;;3.50;1.00;;;;;37.59;23.46;100571.75;4964104;28;45575;-75
2021/06/20 10:16:26;;;;;;;;;2.00;2.00;;;;;37.25;28.73;100559.78;4965398;28;45620;-74
2021/06/20 10:19:09;;;;;;;;;1.50;1.50;;;;;37.25;28.34;100554.28;4965070;28;45848;-73
2021/06/20 10:21:43;;;;;;;;;2.50;1.00;;;;;37.48;26.05;100562.22;4965922;28;46437;-75
2021/06/20 10:24:19;;;;;;;;;1.50;1.50;;;;;37.65;28.51;100553.88;4968045;28;45535;-74
2021/06/20 10:26:51;;;;;;;;;1.00;1.00;;;;;37.91;26.02;100555.56;4963563;28;45524;-74
2021/06/20 10:29:37;;;;;;;;;3.25;1.75;;;;;37.63;26.06;100548.69;4964996;28;56706;-74
2021/06/20 10:32:23;;;;;;;;;0.50;0.50;;;;;37.26;27.74;100538.56;4964999;28;45580;-75
2021/06/20 10:34:52;;;;;;;;;2.00;2.00;;;;;36.97;27.19;100534.63;4962911;28;45592;-76
2021/06/20 10:37:20;;;;;;;;;2.50;1.75;;;;;36.70;28.55;100533.19;4963431;28;45868;-75
2021/06/20 10:39:54;;;;;;;;;1.00;1.00;;;;;36.79;23.80;100522.91;4961649;28;46182;-74
2021/06/20 10:42:37;;;;;;;;;2.00;2.00;;;;;36.44;26.15;100503.78;4962160;28;45841;-74
2021/06/20 10:45:05;;;;;;;;;1.00;1.00;;;;;36.43;27.29;100507.66;4968784;28;45602;-75
2021/06/20 10:47:39;;;;;;;;;2.00;2.00;;;;;36.46;26.64;100478.69;4960621;28;45529;-75
2021/06/20 10:50:10;;;;;;;;;1.50;1.00;;;;;36.49;26.36;100472.53;4965465;28;45865;-76
2021/06/20 10:52:37;;;;;;;;;2.00;2.00;;;;;36.16;27.37;100460.19;4970364;28;46475;-75
2021/06/20 10:55:07;;;;;;;;;1.00;1.00;;;;;36.25;25.25;100460.13;4961052;28;45735;-77
2021/06/20 10:57:32;;;;;;;;;1.25;1.25;;;;;35.83;26.64;100461.84;4962563;28;45684;-74
2021/06/20 10:59:59;;;;;;;;;3.50;3.50;;;;;35.67;27.15;100462.34;4968664;28;45736;-74
2021/06/20 11:02:33;;;;;;;;;2.00;2.00;;;;;35.20;26.52;100456.69;4963649;28;45600;-74
2021/06/20 11:04:59;;;;;;;;;2.50;2.50;;;;;34.78;27.72;100460.94;4961064;28;45603;-74
2021/06/20 11:07:28;;;;;;;;;2.00;1.25;;;;;34.29;28.45;100457.31;4959477;28;45808;-75
2021/06/20 11:09:55;;;;;;;;;2.00;2.00;;;;;34.16;28.66;100465.31;4964748;28;45642;-74
2021/06/20 11:12:21;;;;;;;;;2.00;2.00;;;;;33.72;28.64;100447.78;4964962;28;45894;-75
2021/06/20 11:14:49;;;;;;;;;4.00;4.00;;;;;33.26;28.60;100431.59;4963093;28;45472;-74
2021/06/20 11:17:15;;;;;;;;;7.50;6.50;;;;;32.71;30.01;100421.53;4957252;28;45680;-75
2021/06/20 11:19:43;;;;;;;;;5.00;4.00;;;;;32.50;29.86;100426.63;4961962;28;57102;-75
2021/06/20 11:22:11;;;;;;;;;2.75;2.00;;;;;32.58;31.06;100409.47;4964732;28;47510;-74
2021/06/20 11:24:43;;;;;;;;;2.75;2.25;;;;;32.90;29.78;100416.75;4966393;28;45626;-74